Terminal Aerodrome Forecast
Issued by NWS Wilmington, NC

Home | Current Version | Previous Version | Text Only | Print | Product List | Glossary On
Versions: 1 2 3 4 5 6 7 8 9 10 11 12 13 14 15 16
000
FTUS42 KILM 191720
TAFILM
TAF
KILM 191720Z 1918/2018 23008KT P6SM VCTS SCT030CB SCT250
     FM192100 20006KT P6SM SCT040 BKN250
     FM200200 VRB03KT P6SM SCT250
      TEMPO 2008/2012 4SM BR
     FM201200 35004KT 6SM HZ BR BKN250=

USA.gov is the U.S. government's official web portal to all federal, state and local government web resources and services.